createdAt,value
2023-03-27T00:00:33.000Z,4.85
2023-03-27T00:01:33.331Z,4.88
2023-03-27T00:02:33.712Z,4.91
2023-03-27T00:03:34.016Z,4.92
2023-03-27T00:04:34.189Z,4.96
2023-03-27T00:05:34.469Z,4.97
2023-03-27T00:06:34.787Z,4.97
2023-03-27T00:07:35.086Z,4.96
2023-03-27T00:08:35.414Z,4.99
2023-03-27T00:09:35.718Z,4.97
2023-03-27T00:10:36.025Z,4.94
2023-03-27T00:11:36.327Z,4.92
2023-03-27T00:12:36.648Z,4.91
2023-03-27T00:13:49.526Z,4.89
2023-03-27T00:14:38.238Z,4.89
2023-03-27T00:15:37.507Z,4.85
2023-03-27T00:16:37.832Z,4.82
2023-03-27T00:17:38.164Z,4.77
2023-03-27T00:18:38.447Z,4.77
2023-03-27T00:19:38.789Z,4.78
2023-03-27T00:20:39.070Z,4.77
2023-03-27T00:21:39.365Z,4.77
2023-03-27T00:22:39.649Z,4.75
2023-03-27T00:23:39.968Z,4.75
2023-03-27T00:24:40.302Z,4.70
2023-03-27T00:25:40.573Z,4.69
2023-03-27T00:26:40.979Z,4.67
2023-03-27T00:27:41.106Z,4.63
2023-03-27T00:28:41.437Z,4.65
2023-03-27T00:29:41.715Z,4.65
2023-03-27T00:30:42.055Z,4.60
2023-03-27T00:31:42.320Z,4.59
2023-03-27T00:32:42.660Z,4.59
2023-03-27T00:33:42.957Z,4.58
2023-03-27T00:34:43.234Z,4.55
2023-03-27T00:35:43.573Z,4.55
2023-03-27T00:36:43.869Z,4.58
2023-03-27T00:37:44.171Z,4.54
2023-03-27T00:38:44.516Z,4.50
2023-03-27T00:39:44.847Z,4.50
2023-03-27T00:40:45.132Z,4.45
2023-03-27T00:41:45.424Z,4.44
2023-03-27T00:42:45.766Z,4.41
2023-03-27T00:43:46.072Z,4.41
2023-03-27T00:44:46.360Z,4.40
2023-03-27T00:45:46.676Z,4.36
2023-03-27T00:46:47.138Z,4.37
2023-03-27T00:47:47.317Z,4.36
2023-03-27T00:48:47.578Z,4.33
2023-03-27T00:49:47.876Z,4.33
2023-03-27T00:50:48.170Z,4.34
2023-03-27T00:51:48.514Z,4.33
2023-03-27T00:52:48.818Z,4.33
2023-03-27T00:53:49.125Z,4.32
2023-03-27T00:54:49.417Z,4.32
2023-03-27T00:55:49.714Z,4.33
2023-03-27T00:56:50.130Z,4.37
2023-03-27T00:57:50.293Z,4.36
2023-03-27T00:58:50.588Z,4.41
2023-03-27T00:59:50.934Z,4.40
2023-03-27T01:00:51.244Z,4.40
2023-03-27T01:01:51.631Z,4.37
2023-03-27T01:02:51.873Z,4.36
2023-03-27T01:03:52.160Z,4.33
2023-03-27T01:04:52.324Z,4.32
2023-03-27T01:05:52.630Z,4.30
2023-03-27T01:06:52.926Z,4.30
2023-03-27T01:08:00.087Z,4.27
2023-03-27T01:08:54.532Z,4.24
2023-03-27T01:09:53.798Z,4.24
2023-03-27T01:10:54.372Z,4.20
2023-03-27T01:11:54.371Z,4.22
2023-03-27T01:12:54.684Z,4.22
2023-03-27T01:13:54.992Z,4.22
2023-03-27T01:14:55.350Z,4.20
2023-03-27T01:15:55.636Z,4.20
2023-03-27T01:16:55.923Z,4.16
2023-03-27T01:17:56.273Z,4.12
2023-03-27T01:18:56.536Z,4.09
2023-03-27T01:19:56.822Z,4.08
2023-03-27T01:20:57.337Z,4.05
2023-03-27T01:21:57.522Z,4.06
2023-03-27T01:22:57.812Z,4.05
2023-03-27T01:23:59.833Z,4.05
2023-03-27T01:24:58.424Z,4.05
2023-03-27T01:25:58.704Z,4.04
2023-03-27T01:26:59.023Z,4.04
2023-03-27T01:27:59.334Z,4.00
2023-03-27T01:28:59.659Z,4.00
2023-03-27T01:29:59.982Z,4.02
2023-03-27T01:31:00.320Z,4.00
2023-03-27T01:32:00.582Z,4.02
2023-03-27T01:33:00.969Z,4.02
2023-03-27T01:34:01.141Z,4.00
2023-03-27T01:35:03.438Z,4.00
2023-03-27T01:36:01.805Z,4.00
2023-03-27T01:37:02.034Z,4.00
2023-03-27T01:38:02.354Z,4.00
2023-03-27T01:39:02.684Z,4.00
2023-03-27T01:40:02.975Z,4.02
2023-03-27T01:41:03.279Z,4.04
2023-03-27T01:42:03.578Z,4.02
2023-03-27T01:43:03.916Z,4.02
2023-03-27T01:44:04.237Z,3.98
2023-03-27T01:45:04.541Z,3.98
2023-03-27T01:46:04.871Z,3.98
2023-03-27T01:47:05.193Z,4.02
2023-03-27T01:48:05.500Z,4.04
2023-03-27T01:49:05.789Z,4.00
2023-03-27T01:50:06.097Z,3.98
2023-03-27T01:51:06.394Z,3.93
2023-03-27T01:52:06.707Z,3.88
2023-03-27T01:53:07.020Z,3.86
2023-03-27T01:54:07.364Z,3.83
2023-03-27T01:55:07.641Z,3.79
2023-03-27T01:56:07.968Z,3.83
2023-03-27T01:57:08.326Z,3.78
2023-03-27T01:58:08.534Z,3.76
2023-03-27T01:59:08.856Z,3.70
2023-03-27T02:00:17.977Z,3.69
2023-03-27T02:01:10.698Z,3.68
2023-03-27T02:02:09.711Z,3.66
2023-03-27T02:03:10.029Z,3.68
2023-03-27T02:04:10.332Z,3.62
2023-03-27T02:05:10.686Z,3.68
2023-03-27T02:06:10.948Z,3.69
2023-03-27T02:07:11.281Z,3.70
2023-03-27T02:08:11.581Z,3.72
2023-03-27T02:09:11.919Z,3.68
2023-03-27T02:10:12.264Z,3.62
2023-03-27T02:11:12.570Z,3.61
2023-03-27T02:12:12.875Z,3.60
2023-03-27T02:13:13.195Z,3.60
2023-03-27T02:14:13.489Z,3.60
2023-03-27T02:15:23.587Z,3.55
2023-03-27T02:16:15.174Z,3.57
2023-03-27T02:17:14.450Z,3.54
2023-03-27T02:18:14.696Z,3.52
2023-03-27T02:19:15.015Z,3.50
2023-03-27T02:20:15.344Z,3.48
2023-03-27T02:21:15.642Z,3.45
2023-03-27T02:22:15.932Z,3.43
2023-03-27T02:23:16.230Z,3.43
2023-03-27T02:24:16.568Z,3.40
2023-03-27T02:25:16.877Z,3.36
2023-03-27T02:26:17.171Z,3.35
2023-03-27T02:27:17.463Z,3.33
2023-03-27T02:28:17.784Z,3.33
2023-03-27T02:29:18.095Z,3.31
2023-03-27T02:30:18.401Z,3.31
2023-03-27T02:31:33.115Z,3.31
2023-03-27T02:32:20.142Z,3.29
2023-03-27T02:33:19.286Z,3.29
2023-03-27T02:34:19.581Z,3.29
2023-03-27T02:35:19.936Z,3.31
2023-03-27T02:36:20.196Z,3.29
2023-03-27T02:37:20.507Z,3.31
2023-03-27T02:38:20.815Z,3.32
2023-03-27T02:39:21.122Z,3.32
2023-03-27T02:40:21.464Z,3.32
2023-03-27T02:41:21.758Z,3.32
2023-03-27T02:42:22.064Z,3.31
2023-03-27T02:43:22.381Z,3.28
2023-03-27T02:44:22.718Z,3.29
2023-03-27T02:45:23.056Z,3.31
2023-03-27T02:46:23.307Z,3.33
2023-03-27T02:47:23.510Z,3.32
2023-03-27T02:48:23.799Z,3.33
2023-03-27T02:49:24.298Z,3.32
2023-03-27T02:50:24.462Z,3.32
2023-03-27T02:51:24.763Z,3.31
2023-03-27T02:52:25.075Z,3.29
2023-03-27T02:53:25.353Z,3.28
2023-03-27T02:54:25.714Z,3.29
2023-03-27T02:55:26.036Z,3.31
2023-03-27T02:56:26.329Z,3.31
2023-03-27T02:57:26.665Z,3.32
2023-03-27T02:58:26.946Z,3.32
2023-03-27T02:59:27.273Z,3.32
2023-03-27T03:00:27.576Z,3.28
2023-03-27T03:01:27.929Z,3.21
2023-03-27T03:02:28.323Z,3.20
2023-03-27T03:03:28.554Z,3.21
2023-03-27T03:04:28.835Z,3.20
2023-03-27T03:05:29.134Z,3.20
2023-03-27T03:06:29.450Z,3.20
2023-03-27T03:07:29.759Z,3.20
2023-03-27T03:08:30.051Z,3.21
2023-03-27T03:09:30.370Z,3.20
2023-03-27T03:10:30.683Z,3.20
2023-03-27T03:11:30.971Z,3.20
2023-03-27T03:12:31.337Z,3.18
2023-03-27T03:13:31.516Z,3.20
2023-03-27T03:14:31.845Z,3.18
2023-03-27T03:15:32.143Z,3.18
2023-03-27T03:16:32.450Z,3.15
2023-03-27T03:17:32.796Z,3.14
2023-03-27T03:18:33.077Z,3.10
2023-03-27T03:19:33.401Z,3.05
2023-03-27T03:20:33.687Z,3.03
2023-03-27T03:21:34.049Z,3.02
2023-03-27T03:22:34.330Z,3.03
2023-03-27T03:23:34.646Z,3.05
2023-03-27T03:24:34.991Z,3.03
2023-03-27T03:25:35.296Z,3.02
2023-03-27T03:26:35.599Z,3.00
2023-03-27T03:27:35.898Z,3.02
2023-03-27T03:28:36.234Z,3.00
2023-03-27T03:29:36.537Z,2.99
2023-03-27T03:30:36.866Z,2.99
2023-03-27T03:31:37.137Z,2.99
2023-03-27T03:32:37.520Z,2.97
2023-03-27T03:33:37.706Z,2.99
2023-03-27T03:34:38.041Z,3.02
2023-03-27T03:35:38.364Z,3.03
2023-03-27T03:36:38.635Z,3.02
2023-03-27T03:37:39.067Z,2.99
2023-03-27T03:38:39.247Z,3.00
2023-03-27T03:39:39.581Z,2.97
2023-03-27T03:40:39.874Z,2.95
2023-03-27T03:41:40.231Z,2.95
2023-03-27T03:42:40.508Z,2.96
2023-03-27T03:43:40.807Z,2.96
2023-03-27T03:44:41.113Z,2.96
2023-03-27T03:45:41.416Z,2.93
2023-03-27T03:46:41.726Z,2.95
2023-03-27T03:47:42.058Z,2.92
2023-03-27T03:48:42.325Z,2.92
2023-03-27T03:49:42.649Z,2.89
2023-03-27T03:50:42.951Z,2.87
2023-03-27T03:51:43.267Z,2.87
2023-03-27T03:52:43.568Z,2.87
2023-03-27T03:53:43.896Z,2.87
2023-03-27T03:54:46.112Z,2.85
2023-03-27T03:55:44.470Z,2.84
2023-03-27T03:56:44.818Z,2.82
2023-03-27T03:57:45.046Z,2.84
2023-03-27T03:58:45.347Z,2.81
2023-03-27T03:59:45.662Z,2.78
2023-03-27T04:00:45.965Z,2.77
2023-03-27T04:01:46.282Z,2.77
2023-03-27T04:02:46.611Z,2.74
2023-03-27T04:03:47.000Z,2.71
2023-03-27T04:04:47.179Z,2.72
2023-03-27T04:05:47.506Z,2.71
2023-03-27T04:06:47.817Z,2.72
2023-03-27T04:07:48.141Z,2.71
2023-03-27T04:08:48.472Z,2.71
2023-03-27T04:09:48.774Z,2.71
2023-03-27T04:10:49.069Z,2.69
2023-03-27T04:11:49.390Z,2.66
2023-03-27T04:12:49.688Z,2.63
2023-03-27T04:13:49.985Z,2.63
2023-03-27T04:14:50.313Z,2.64
2023-03-27T04:15:50.610Z,2.61
2023-03-27T04:16:50.921Z,2.63
2023-03-27T04:17:51.294Z,2.63
2023-03-27T04:18:51.482Z,2.64
2023-03-27T04:19:51.776Z,2.66
2023-03-27T04:20:52.085Z,2.64
2023-03-27T04:21:52.393Z,2.61
2023-03-27T04:22:54.220Z,2.60
2023-03-27T04:23:52.984Z,2.59
2023-03-27T04:24:53.291Z,2.60
2023-03-27T04:25:53.667Z,2.61
2023-03-27T04:26:53.921Z,2.63
2023-03-27T04:27:54.217Z,2.63
2023-03-27T04:28:54.579Z,2.61
2023-03-27T04:29:54.870Z,2.63
2023-03-27T04:30:55.539Z,2.61
2023-03-27T04:31:55.482Z,2.63
2023-03-27T04:32:55.821Z,2.63
2023-03-27T04:33:56.140Z,2.66
2023-03-27T04:34:56.435Z,2.64
2023-03-27T04:36:06.524Z,2.66
2023-03-27T04:36:58.122Z,2.67
2023-03-27T04:37:57.363Z,2.67
2023-03-27T04:38:57.683Z,2.63
2023-03-27T04:39:58.023Z,2.63
2023-03-27T04:40:58.463Z,2.61
2023-03-27T04:41:58.677Z,2.60
2023-03-27T04:42:58.999Z,2.59
2023-03-27T04:43:59.307Z,2.57
2023-03-27T04:44:59.661Z,2.57
2023-03-27T04:45:59.920Z,2.56
2023-03-27T04:47:00.158Z,2.54
2023-03-27T04:48:00.394Z,2.54
2023-03-27T04:49:00.642Z,2.56
2023-03-27T04:50:00.968Z,2.56
2023-03-27T04:51:01.148Z,2.54
2023-03-27T04:52:01.481Z,2.54
2023-03-27T04:53:01.833Z,2.54
2023-03-27T04:54:02.812Z,2.53
2023-03-27T04:55:02.357Z,2.53
2023-03-27T04:56:02.587Z,2.54
2023-03-27T04:57:02.962Z,2.54
2023-03-27T04:58:03.142Z,2.52
2023-03-27T04:59:03.462Z,2.52
2023-03-27T05:00:03.751Z,2.52
2023-03-27T05:01:04.060Z,2.48
2023-03-27T05:02:04.379Z,2.45
2023-03-27T05:03:04.792Z,2.43
2023-03-27T05:04:05.064Z,2.45
2023-03-27T05:05:05.271Z,2.45
2023-03-27T05:06:05.499Z,2.43
2023-03-27T05:07:05.752Z,2.43
2023-03-27T05:08:06.046Z,2.43
2023-03-27T05:09:06.378Z,2.43
2023-03-27T05:10:06.726Z,2.45
2023-03-27T05:11:07.058Z,2.43
2023-03-27T05:12:07.366Z,2.42
2023-03-27T05:13:07.689Z,2.42
2023-03-27T05:14:08.027Z,2.42
2023-03-27T05:15:08.394Z,2.43
2023-03-27T05:16:08.619Z,2.43
2023-03-27T05:17:08.934Z,2.45
2023-03-27T05:18:09.563Z,2.46
2023-03-27T05:19:09.482Z,2.46
2023-03-27T05:20:09.757Z,2.43
2023-03-27T05:21:09.998Z,2.42
2023-03-27T05:22:10.261Z,2.43
2023-03-27T05:23:10.603Z,2.42
2023-03-27T05:24:10.789Z,2.42
2023-03-27T05:25:11.075Z,2.42
2023-03-27T05:26:11.288Z,2.41
2023-03-27T05:27:11.671Z,2.41
2023-03-27T05:28:11.937Z,2.41
2023-03-27T05:29:12.163Z,2.39
2023-03-27T05:30:12.453Z,2.42
2023-03-27T05:31:12.737Z,2.45
2023-03-27T05:32:12.971Z,2.49
2023-03-27T05:33:13.214Z,2.52
2023-03-27T05:34:13.426Z,2.53
2023-03-27T05:35:13.697Z,2.63
2023-03-27T05:36:13.920Z,2.85
2023-03-27T05:37:14.276Z,3.13
2023-03-27T05:38:14.531Z,3.33
2023-03-27T05:39:14.751Z,3.45
2023-03-27T05:40:14.982Z,3.48
2023-03-27T05:41:15.220Z,3.54
2023-03-27T05:42:15.441Z,3.65
2023-03-27T05:43:15.721Z,3.72
2023-03-27T05:44:16.004Z,3.75
2023-03-27T05:45:16.261Z,3.83
2023-03-27T05:46:21.081Z,3.88
2023-03-27T05:47:17.874Z,3.91
2023-03-27T05:48:17.143Z,3.96
2023-03-27T05:49:17.509Z,3.97
2023-03-27T05:50:17.752Z,3.98
2023-03-27T05:51:17.992Z,4.04
2023-03-27T05:52:18.219Z,4.05
2023-03-27T05:53:18.525Z,4.04
2023-03-27T05:54:18.726Z,4.09
2023-03-27T05:55:19.107Z,4.16
2023-03-27T05:56:19.377Z,4.00
2023-03-27T05:57:19.725Z,3.98
2023-03-27T05:58:19.955Z,4.12
2023-03-27T05:59:20.207Z,4.22
2023-03-27T06:00:20.435Z,4.30
2023-03-27T06:01:20.666Z,4.42
2023-03-27T06:02:21.679Z,4.51
2023-03-27T06:03:21.224Z,4.62
2023-03-27T06:04:21.494Z,4.66
2023-03-27T06:05:21.745Z,4.66
2023-03-27T06:06:21.982Z,4.60
2023-03-27T06:07:29.818Z,4.55
2023-03-27T06:08:22.505Z,4.52
2023-03-27T06:09:22.748Z,4.45
2023-03-27T06:10:22.976Z,4.36
2023-03-27T06:11:23.211Z,4.24
2023-03-27T06:12:23.479Z,4.09
2023-03-27T06:13:23.706Z,3.91
2023-03-27T06:14:24.045Z,3.83
2023-03-27T06:15:24.278Z,3.70
2023-03-27T06:16:24.572Z,3.66
2023-03-27T06:17:24.796Z,3.61
2023-03-27T06:18:25.044Z,3.52
2023-03-27T06:19:25.305Z,3.47
2023-03-27T06:20:25.507Z,3.42
2023-03-27T06:21:25.800Z,3.35
2023-03-27T06:22:26.094Z,3.33
2023-03-27T06:23:26.337Z,3.31
2023-03-27T06:24:26.581Z,3.28
2023-03-27T06:25:26.886Z,3.29
2023-03-27T06:26:27.253Z,3.31
2023-03-27T06:27:27.325Z,3.33
2023-03-27T06:28:27.552Z,3.33
2023-03-27T06:29:27.777Z,3.33
2023-03-27T06:30:28.054Z,3.35
2023-03-27T06:31:28.370Z,3.33
2023-03-27T06:32:28.572Z,3.33
2023-03-27T06:33:28.801Z,3.35
2023-03-27T06:34:29.046Z,3.35
2023-03-27T06:35:29.403Z,3.39
2023-03-27T06:36:29.613Z,3.40
2023-03-27T06:37:29.816Z,3.40
2023-03-27T06:38:30.075Z,3.40
2023-03-27T06:39:30.287Z,3.42
2023-03-27T06:40:30.560Z,3.43
2023-03-27T06:41:30.802Z,3.47
2023-03-27T06:42:31.049Z,3.50
2023-03-27T06:43:31.255Z,3.50
2023-03-27T06:44:31.530Z,3.47
2023-03-27T06:45:31.776Z,3.48
2023-03-27T06:46:38.897Z,3.50
2023-03-27T06:47:38.655Z,3.51
2023-03-27T06:48:33.648Z,3.52
2023-03-27T06:49:32.941Z,3.55
2023-03-27T06:50:33.183Z,3.57
2023-03-27T06:51:33.436Z,3.57
2023-03-27T06:52:33.686Z,3.58
2023-03-27T06:53:37.334Z,3.58
2023-03-27T06:54:34.180Z,3.61
2023-03-27T06:55:34.414Z,3.60
2023-03-27T06:56:34.696Z,3.60
2023-03-27T06:57:34.891Z,3.60
2023-03-27T06:58:35.143Z,3.61
2023-03-27T06:59:35.341Z,3.65
2023-03-27T07:00:35.763Z,3.68
2023-03-27T07:01:36.053Z,3.66
2023-03-27T07:02:36.260Z,3.68
2023-03-27T07:03:36.481Z,3.72
2023-03-27T07:04:36.763Z,3.70
2023-03-27T07:05:37.040Z,3.68
2023-03-27T07:06:39.575Z,3.68
2023-03-27T07:07:40.343Z,3.69
2023-03-27T07:08:37.778Z,3.70
2023-03-27T07:09:39.967Z,3.69
2023-03-27T07:10:38.322Z,3.72
2023-03-27T07:11:38.703Z,3.72
2023-03-27T07:12:38.785Z,3.70
2023-03-27T07:13:39.077Z,3.70
2023-03-27T07:14:39.349Z,3.73
2023-03-27T07:15:39.632Z,3.76
2023-03-27T07:16:40.032Z,3.75
2023-03-27T07:17:48.618Z,3.75
2023-03-27T07:18:41.372Z,3.76
2023-03-27T07:19:40.661Z,3.78
2023-03-27T07:20:40.894Z,3.76
2023-03-27T07:21:41.121Z,3.78
2023-03-27T07:22:41.587Z,3.80
2023-03-27T07:23:41.789Z,3.84
2023-03-27T07:24:42.150Z,3.83
2023-03-27T07:25:42.398Z,3.84
2023-03-27T07:26:42.614Z,3.86
2023-03-27T07:27:42.868Z,3.80
2023-03-27T07:28:43.097Z,3.83
2023-03-27T07:29:43.374Z,3.86
2023-03-27T07:30:43.610Z,3.88
2023-03-27T07:31:57.514Z,3.86
2023-03-27T07:32:45.224Z,3.86
2023-03-27T07:33:44.555Z,3.84
2023-03-27T07:34:44.618Z,3.87
2023-03-27T07:35:44.909Z,3.88
2023-03-27T07:36:45.150Z,3.94
2023-03-27T07:37:45.363Z,3.97
2023-03-27T07:38:45.646Z,3.98
2023-03-27T07:39:45.912Z,4.04
2023-03-27T07:40:46.596Z,4.08
2023-03-27T07:41:46.395Z,4.12
2023-03-27T07:42:46.638Z,4.16
2023-03-27T07:43:46.889Z,4.18
2023-03-27T07:44:47.106Z,4.23
2023-03-27T07:45:47.405Z,4.23
2023-03-27T07:46:47.659Z,4.23
2023-03-27T07:47:47.975Z,4.24
2023-03-27T07:48:48.199Z,4.23
2023-03-27T07:49:48.421Z,4.23
2023-03-27T07:50:48.700Z,4.22
2023-03-27T07:51:48.918Z,4.22
2023-03-27T07:52:49.272Z,4.23
2023-03-27T07:53:49.535Z,4.30
2023-03-27T07:54:49.808Z,4.37
2023-03-27T07:55:50.038Z,4.42
2023-03-27T07:56:50.676Z,4.44
2023-03-27T07:58:00.548Z,4.44
2023-03-27T07:58:52.084Z,4.48
2023-03-27T07:59:51.310Z,4.54
2023-03-27T08:00:51.828Z,4.62
2023-03-27T08:01:51.809Z,4.69
2023-03-27T08:02:52.213Z,4.70
2023-03-27T08:03:52.544Z,4.65
2023-03-27T08:04:52.978Z,4.58
2023-03-27T08:05:53.053Z,4.58
2023-03-27T08:06:54.382Z,4.55
2023-03-27T08:07:53.800Z,4.54
2023-03-27T08:08:54.048Z,4.58
2023-03-27T08:09:54.320Z,4.54
2023-03-27T08:10:54.295Z,4.52
2023-03-27T08:11:55.147Z,4.58
2023-03-27T08:12:57.197Z,4.60
2023-03-27T08:14:01.072Z,4.63
2023-03-27T08:15:03.976Z,4.65
2023-03-27T08:15:58.871Z,4.62
2023-03-27T08:17:02.368Z,4.62
2023-03-27T08:18:01.544Z,4.65
2023-03-27T08:18:58.019Z,4.69
2023-03-27T08:19:56.999Z,4.72
2023-03-27T08:20:57.515Z,4.75
2023-03-27T08:21:57.644Z,4.77
2023-03-27T08:22:58.315Z,4.86
2023-03-27T08:23:57.995Z,4.89
2023-03-27T08:24:58.340Z,4.89
2023-03-27T08:25:58.694Z,4.96
2023-03-27T08:26:58.838Z,4.94
2023-03-27T08:27:59.054Z,4.92
2023-03-27T08:28:59.354Z,4.94
2023-03-27T08:29:59.594Z,4.92
2023-03-27T08:31:02.922Z,4.94
2023-03-27T08:32:00.182Z,4.99
2023-03-27T08:33:00.535Z,5.02
2023-03-27T08:34:00.740Z,4.97
2023-03-27T08:35:01.010Z,5.02
2023-03-27T08:36:01.293Z,5.06
2023-03-27T08:37:01.519Z,5.12
2023-03-27T08:38:01.832Z,5.17
2023-03-27T08:39:02.077Z,5.20
2023-03-27T08:40:02.297Z,5.24
2023-03-27T08:41:02.551Z,5.25
2023-03-27T08:42:02.796Z,5.22
2023-03-27T08:43:03.024Z,5.22
2023-03-27T08:44:03.251Z,5.20
2023-03-27T08:45:03.624Z,5.22
2023-03-27T08:46:03.873Z,5.24
2023-03-27T08:47:04.106Z,5.24
2023-03-27T08:48:04.381Z,5.27
2023-03-27T08:49:04.667Z,5.27
2023-03-27T08:50:04.924Z,5.25
2023-03-27T08:51:05.229Z,5.22
2023-03-27T08:52:05.514Z,5.18
2023-03-27T08:53:05.783Z,5.17
2023-03-27T08:54:06.042Z,5.10
2023-03-27T08:55:06.262Z,5.04
2023-03-27T08:56:06.624Z,5.03
2023-03-27T08:57:06.905Z,5.03
2023-03-27T08:58:07.106Z,5.02
2023-03-27T08:59:07.328Z,5.02
2023-03-27T09:00:07.697Z,5.04
2023-03-27T09:01:07.918Z,5.12
2023-03-27T09:02:08.220Z,5.20
2023-03-27T09:03:08.586Z,5.27
2023-03-27T09:04:08.687Z,5.31
2023-03-27T09:05:08.893Z,5.35
2023-03-27T09:06:09.140Z,5.36
2023-03-27T09:07:09.377Z,5.42
2023-03-27T09:08:09.595Z,5.42
2023-03-27T09:09:09.943Z,5.40
2023-03-27T09:10:10.191Z,5.42
2023-03-27T09:11:10.429Z,5.35
2023-03-27T09:12:11.445Z,5.24
2023-03-27T09:13:10.933Z,5.20
2023-03-27T09:14:11.192Z,5.15
2023-03-27T09:15:11.446Z,5.13
2023-03-27T09:16:11.681Z,5.12
2023-03-27T09:17:11.911Z,5.10
2023-03-27T09:18:12.152Z,5.12
2023-03-27T09:19:12.379Z,5.17
2023-03-27T09:20:12.621Z,5.24
2023-03-27T09:21:13.005Z,5.25
2023-03-27T09:22:13.180Z,5.24
2023-03-27T09:23:13.560Z,5.21
2023-03-27T09:24:13.783Z,5.18
2023-03-27T09:25:14.020Z,5.18
2023-03-27T09:26:14.385Z,5.18
2023-03-27T09:27:14.629Z,5.21
2023-03-27T09:28:14.845Z,5.27
2023-03-27T09:29:20.087Z,5.31
2023-03-27T09:30:16.450Z,5.36
2023-03-27T09:31:15.757Z,5.33
2023-03-27T09:32:15.945Z,5.35
2023-03-27T09:33:16.255Z,5.35
2023-03-27T09:34:16.479Z,5.38
2023-03-27T09:35:16.767Z,5.40
2023-03-27T09:36:17.067Z,5.40
2023-03-27T09:37:17.367Z,5.39
2023-03-27T09:38:17.634Z,5.39
2023-03-27T09:39:17.901Z,5.39
2023-03-27T09:40:18.116Z,5.36
2023-03-27T09:41:18.406Z,5.36
2023-03-27T09:42:18.617Z,5.35
2023-03-27T09:43:18.913Z,5.35
2023-03-27T09:44:19.135Z,5.36
2023-03-27T09:45:19.364Z,5.36
2023-03-27T09:46:19.633Z,5.35
2023-03-27T09:47:19.835Z,5.35
2023-03-27T09:48:20.086Z,5.33
2023-03-27T09:49:20.406Z,5.28
2023-03-27T09:50:20.685Z,5.31
2023-03-27T09:51:21.132Z,5.36
2023-03-27T09:52:21.228Z,5.38
2023-03-27T09:53:21.440Z,5.39
2023-03-27T09:54:21.689Z,5.42
2023-03-27T09:55:22.037Z,5.43
2023-03-27T09:56:22.274Z,5.42
2023-03-27T09:57:22.535Z,5.45
2023-03-27T09:58:22.796Z,5.49
2023-03-27T09:59:23.022Z,5.56
2023-03-27T10:00:23.316Z,5.60
2023-03-27T10:01:24.317Z,5.63
2023-03-27T10:02:23.775Z,5.64
2023-03-27T10:03:24.170Z,5.64
2023-03-27T10:04:24.237Z,5.68
2023-03-27T10:05:24.613Z,5.72
2023-03-27T10:06:25.570Z,5.72
2023-03-27T10:07:25.164Z,5.68
2023-03-27T10:08:27.234Z,5.67
2023-03-27T10:09:25.655Z,5.67
2023-03-27T10:10:25.864Z,5.68
2023-03-27T10:11:26.216Z,5.75
2023-03-27T10:12:26.431Z,5.82
2023-03-27T10:13:26.804Z,5.91
2023-03-27T10:14:27.047Z,5.93
2023-03-27T10:15:27.275Z,5.93
2023-03-27T10:16:27.621Z,5.97
2023-03-27T10:17:27.776Z,5.96
2023-03-27T10:18:28.060Z,5.96
2023-03-27T10:19:28.259Z,5.96
2023-03-27T10:20:28.604Z,5.94
2023-03-27T10:21:28.949Z,5.94
2023-03-27T10:22:29.202Z,5.94
2023-03-27T10:23:29.508Z,5.96
2023-03-27T10:24:29.697Z,5.97
2023-03-27T10:25:29.949Z,5.96
2023-03-27T10:26:30.192Z,5.97
2023-03-27T10:27:30.428Z,6.00
2023-03-27T10:28:30.640Z,6.01
2023-03-27T10:29:30.994Z,6.04
2023-03-27T10:30:31.253Z,6.09
2023-03-27T10:31:31.539Z,6.01
2023-03-27T10:32:31.788Z,6.01
2023-03-27T10:33:31.997Z,5.97
2023-03-27T10:34:32.247Z,5.96
2023-03-27T10:35:34.716Z,5.97
2023-03-27T10:36:32.769Z,5.99
2023-03-27T10:37:33.025Z,5.97
2023-03-27T10:38:33.260Z,6.01
2023-03-27T10:39:33.617Z,6.06
2023-03-27T10:40:33.838Z,6.06
2023-03-27T10:41:34.227Z,6.04
2023-03-27T10:42:34.487Z,6.01
2023-03-27T10:43:34.716Z,6.00
2023-03-27T10:44:34.955Z,6.01
2023-03-27T10:45:35.229Z,6.03
2023-03-27T10:46:35.450Z,6.03
2023-03-27T10:47:35.836Z,6.04
2023-03-27T10:48:36.058Z,6.06
2023-03-27T10:49:36.269Z,6.09
2023-03-27T10:50:36.503Z,6.11
2023-03-27T10:51:45.872Z,6.11
2023-03-27T10:52:38.029Z,6.14
2023-03-27T10:53:37.461Z,6.17
2023-03-27T10:54:37.603Z,6.21
2023-03-27T10:55:37.830Z,6.27
2023-03-27T10:56:38.240Z,6.34
2023-03-27T10:57:38.443Z,6.40
2023-03-27T10:58:38.673Z,6.46
2023-03-27T10:59:41.817Z,6.49
2023-03-27T11:00:39.163Z,6.51
2023-03-27T11:01:39.457Z,6.49
2023-03-27T11:02:39.655Z,6.51
2023-03-27T11:03:39.968Z,6.55
2023-03-27T11:04:40.185Z,6.58
2023-03-27T11:05:40.556Z,6.59
2023-03-27T11:06:40.893Z,6.61
2023-03-27T11:07:41.052Z,6.66
2023-03-27T11:08:41.387Z,6.61
2023-03-27T11:09:41.717Z,6.55
2023-03-27T11:10:42.063Z,6.54
2023-03-27T11:11:42.481Z,6.51
2023-03-27T11:12:42.689Z,6.48
2023-03-27T11:13:43.040Z,6.46
2023-03-27T11:14:43.308Z,6.44
2023-03-27T11:15:43.534Z,6.48
2023-03-27T11:16:43.842Z,6.49
2023-03-27T11:17:44.113Z,6.52
2023-03-27T11:18:44.310Z,6.43
2023-03-27T11:19:44.561Z,6.37
2023-03-27T11:20:44.778Z,6.33
2023-03-27T11:21:45.146Z,6.36
2023-03-27T11:22:45.369Z,6.38
2023-03-27T11:23:45.748Z,6.46
2023-03-27T11:24:46.012Z,6.54
2023-03-27T11:25:46.245Z,6.59
2023-03-27T11:26:46.505Z,6.69
2023-03-27T11:27:46.756Z,6.74
2023-03-27T11:28:46.992Z,6.76
2023-03-27T11:29:47.254Z,6.77
2023-03-27T11:30:47.562Z,6.79
2023-03-27T11:31:47.794Z,6.77
2023-03-27T11:32:48.043Z,6.80
2023-03-27T11:33:48.254Z,6.85
2023-03-27T11:34:48.486Z,6.88
2023-03-27T11:35:48.939Z,6.89
2023-03-27T11:36:49.161Z,6.92
2023-03-27T11:37:49.383Z,6.89
2023-03-27T11:38:49.622Z,6.85
2023-03-27T11:39:49.936Z,6.74
2023-03-27T11:40:50.169Z,6.66
2023-03-27T11:41:50.589Z,6.61
2023-03-27T11:42:50.876Z,6.61
2023-03-27T11:43:51.088Z,6.62
2023-03-27T11:44:51.316Z,6.69
2023-03-27T11:45:51.670Z,6.77
2023-03-27T11:46:51.954Z,6.81
2023-03-27T11:47:52.242Z,6.87
2023-03-27T11:48:52.444Z,6.88
2023-03-27T11:49:52.656Z,6.85
2023-03-27T11:50:53.045Z,6.84
2023-03-27T11:51:53.287Z,6.81
2023-03-27T11:52:53.500Z,6.79
2023-03-27T11:53:53.847Z,6.74
2023-03-27T11:54:54.183Z,6.73
2023-03-27T11:55:54.550Z,6.70
2023-03-27T11:56:54.889Z,6.71
2023-03-27T11:57:55.100Z,6.71
2023-03-27T11:58:55.421Z,6.66
2023-03-27T11:59:55.748Z,6.64
2023-03-27T12:00:56.174Z,6.64
2023-03-27T12:01:56.324Z,6.66
2023-03-27T12:02:56.626Z,6.67
2023-03-27T12:03:56.812Z,6.67
2023-03-27T12:04:57.062Z,6.70
2023-03-27T12:05:57.318Z,6.73
2023-03-27T12:07:03.931Z,6.77
2023-03-27T12:07:58.894Z,6.81
2023-03-27T12:08:58.182Z,6.87
2023-03-27T12:09:58.487Z,6.80
2023-03-27T12:10:58.987Z,6.79
2023-03-27T12:11:59.023Z,6.79
2023-03-27T12:12:59.359Z,6.81
2023-03-27T12:14:02.030Z,6.87
2023-03-27T12:14:59.810Z,6.88
2023-03-27T12:16:00.244Z,6.89
2023-03-27T12:17:00.440Z,6.85
2023-03-27T12:18:00.754Z,6.87
2023-03-27T12:19:08.069Z,6.88
2023-03-27T12:20:02.284Z,6.88
2023-03-27T12:21:01.675Z,6.87
2023-03-27T12:22:05.213Z,6.88
2023-03-27T12:23:03.131Z,6.88
2023-03-27T12:24:02.403Z,6.88
2023-03-27T12:25:02.768Z,6.87
2023-03-27T12:26:03.110Z,6.87
2023-03-27T12:27:03.946Z,6.88
2023-03-27T12:28:03.595Z,6.89
2023-03-27T12:29:03.972Z,6.92
2023-03-27T12:30:05.194Z,6.95
2023-03-27T12:31:04.479Z,6.98
2023-03-27T12:32:04.769Z,7.03
2023-03-27T12:33:06.492Z,7.05
2023-03-27T12:34:05.289Z,7.09
2023-03-27T12:35:05.524Z,7.10
2023-03-27T12:36:05.825Z,7.09
2023-03-27T12:37:06.084Z,7.09
2023-03-27T12:38:06.368Z,7.12
2023-03-27T12:39:06.607Z,7.12
2023-03-27T12:40:06.834Z,7.10
2023-03-27T12:41:07.082Z,7.10
2023-03-27T12:42:07.463Z,7.09
2023-03-27T12:43:07.631Z,7.10
2023-03-27T12:44:07.994Z,7.06
2023-03-27T12:45:08.233Z,7.09
2023-03-27T12:46:08.586Z,7.10
2023-03-27T12:47:09.234Z,7.10
2023-03-27T12:48:09.133Z,7.10
2023-03-27T12:49:09.323Z,7.09
2023-03-27T12:50:09.556Z,7.06
2023-03-27T12:51:09.790Z,6.97
2023-03-27T12:52:10.039Z,6.95
2023-03-27T12:53:10.261Z,6.94
2023-03-27T12:54:10.631Z,6.92
2023-03-27T12:55:10.840Z,6.92
2023-03-27T12:56:11.180Z,6.94
2023-03-27T12:57:11.490Z,6.94
2023-03-27T12:58:11.810Z,6.94
2023-03-27T12:59:11.998Z,6.95
2023-03-27T13:00:12.235Z,6.98
2023-03-27T13:01:12.581Z,6.92
2023-03-27T13:02:13.026Z,6.91
2023-03-27T13:03:13.322Z,6.92
2023-03-27T13:04:13.563Z,6.95
2023-03-27T13:05:26.289Z,6.98
2023-03-27T13:06:15.139Z,7.05
2023-03-27T13:07:14.461Z,7.10
2023-03-27T13:08:14.670Z,7.15
2023-03-27T13:09:15.014Z,7.16
2023-03-27T13:10:15.259Z,7.21
2023-03-27T13:11:15.596Z,7.24
2023-03-27T13:12:15.842Z,7.27
2023-03-27T13:13:16.075Z,7.31
2023-03-27T13:14:16.319Z,7.37
2023-03-27T13:15:16.533Z,7.40
2023-03-27T13:16:17.618Z,7.48
2023-03-27T13:17:17.045Z,7.49
2023-03-27T13:18:17.286Z,7.45
2023-03-27T13:19:17.520Z,7.43
2023-03-27T13:20:17.752Z,7.40
2023-03-27T13:21:18.027Z,7.39
2023-03-27T13:22:18.296Z,7.39